createdAt,value
2023-02-20T00:01:48.928Z,1.00
2023-02-20T00:04:16.924Z,1.00
2023-02-20T00:06:44.928Z,1.00
2023-02-20T00:09:13.199Z,1.00
2023-02-20T00:11:41.178Z,1.00
2023-02-20T00:14:09.536Z,1.00
2023-02-20T00:16:38.931Z,1.00
2023-02-20T00:19:07.039Z,1.00
2023-02-20T00:21:35.045Z,1.00
2023-02-20T00:24:03.295Z,1.10
2023-02-20T00:26:31.260Z,1.00
2023-02-20T00:28:59.240Z,1.00
2023-02-20T00:31:27.311Z,1.00
2023-02-20T00:33:56.683Z,1.10
2023-02-20T00:36:24.647Z,1.00
2023-02-20T00:38:52.616Z,1.00
2023-02-20T00:41:21.925Z,1.10
2023-02-20T00:43:50.137Z,1.10
2023-02-20T00:46:18.699Z,1.10
2023-02-20T00:48:46.695Z,1.10
2023-02-20T00:51:16.114Z,1.10
2023-02-20T00:53:44.173Z,1.10
2023-02-20T00:56:12.460Z,1.10
2023-02-20T00:58:40.608Z,1.10
2023-02-20T01:01:09.104Z,1.10
2023-02-20T01:03:37.099Z,1.10
2023-02-20T01:06:05.187Z,1.10
2023-02-20T01:08:34.608Z,1.10
2023-02-20T01:11:02.638Z,1.10
2023-02-20T01:13:30.603Z,1.20
2023-02-20T01:15:58.647Z,1.10
2023-02-20T01:18:26.673Z,1.10
2023-02-20T01:20:55.567Z,1.10
2023-02-20T01:23:23.564Z,1.20
2023-02-20T01:25:52.923Z,1.20
2023-02-20T01:28:20.903Z,1.20
2023-02-20T01:30:48.922Z,1.20
2023-02-20T01:33:16.942Z,1.20
2023-02-20T01:35:44.961Z,1.20
2023-02-20T01:38:12.936Z,1.20
2023-02-20T01:40:41.016Z,1.20
2023-02-20T01:43:12.265Z,1.20
2023-02-20T01:45:41.778Z,1.20
2023-02-20T01:48:21.242Z,1.20
2023-02-20T01:50:51.167Z,1.20
2023-02-20T01:53:22.869Z,1.20
2023-02-20T01:55:53.694Z,1.20
2023-02-20T01:58:26.932Z,1.20
2023-02-20T02:00:56.501Z,1.20
2023-02-20T02:03:28.831Z,1.20
2023-02-20T02:06:01.897Z,1.20
2023-02-20T02:08:30.802Z,1.20
2023-02-20T02:11:02.928Z,1.20
2023-02-20T02:13:33.748Z,1.20
2023-02-20T02:16:13.207Z,1.20
2023-02-20T02:18:53.976Z,1.20
2023-02-20T02:21:46.175Z,1.20
2023-02-20T02:24:45.515Z,1.20
2023-02-20T02:27:51.955Z,1.20
2023-02-20T02:30:59.331Z,1.20
2023-02-20T02:33:57.407Z,1.20
2023-02-20T02:36:42.151Z,1.20
2023-02-20T02:39:19.030Z,1.30
2023-02-20T02:41:55.246Z,1.30
2023-02-20T02:44:31.066Z,1.20
2023-02-20T02:47:03.773Z,1.30
2023-02-20T02:49:39.111Z,1.30
2023-02-20T02:52:10.573Z,1.30
2023-02-20T02:54:39.088Z,1.30
2023-02-20T02:57:23.041Z,1.30
2023-02-20T02:59:55.938Z,1.30
2023-02-20T03:02:27.037Z,1.30
2023-02-20T03:04:57.882Z,1.30
2023-02-20T03:07:29.030Z,1.30
2023-02-20T03:10:01.627Z,1.30
2023-02-20T03:12:31.775Z,1.30
2023-02-20T03:15:21.340Z,1.30
2023-02-20T03:17:59.605Z,1.30
2023-02-20T03:20:28.126Z,1.30
2023-02-20T03:23:01.420Z,1.30
2023-02-20T03:25:34.985Z,1.30
2023-02-20T03:28:06.695Z,1.30
2023-02-20T03:30:38.911Z,1.30
2023-02-20T03:33:31.011Z,1.20
2023-02-20T03:36:19.547Z,1.30
2023-02-20T03:39:11.221Z,1.30
2023-02-20T03:41:59.001Z,1.30
2023-02-20T03:44:31.118Z,1.30
2023-02-20T03:47:02.382Z,1.30
2023-02-20T03:49:35.601Z,1.30
2023-02-20T03:52:04.406Z,1.30
2023-02-20T03:54:35.994Z,1.30
2023-02-20T03:57:09.981Z,1.20
2023-02-20T03:59:42.602Z,1.20
2023-02-20T04:02:17.248Z,1.20
2023-02-20T04:04:49.155Z,1.20
2023-02-20T04:07:21.951Z,1.20
2023-02-20T04:09:51.820Z,1.10
2023-02-20T04:12:25.635Z,1.10
2023-02-20T04:14:56.384Z,1.10
2023-02-20T04:17:31.016Z,1.10
2023-02-20T04:19:59.086Z,1.10
2023-02-20T04:22:30.968Z,1.00
2023-02-20T04:25:02.689Z,1.00
2023-02-20T04:27:31.948Z,1.00
2023-02-20T04:29:59.994Z,1.00
2023-02-20T04:32:28.430Z,0.90
2023-02-20T04:34:57.451Z,0.90
2023-02-20T04:37:25.454Z,0.90
2023-02-20T04:39:53.430Z,0.90
2023-02-20T04:42:22.801Z,0.80
2023-02-20T04:44:51.008Z,0.80
2023-02-20T04:47:20.183Z,0.80
2023-02-20T04:49:48.135Z,0.80
2023-02-20T04:52:16.323Z,0.80
2023-02-20T04:54:44.289Z,0.80
2023-02-20T04:57:12.247Z,0.80
2023-02-20T04:59:41.589Z,0.80
2023-02-20T05:02:10.367Z,0.80
2023-02-20T05:04:38.604Z,0.70
2023-02-20T05:07:06.678Z,0.80
2023-02-20T05:09:34.717Z,0.80
2023-02-20T05:12:02.709Z,0.70
2023-02-20T05:14:30.684Z,0.70
2023-02-20T05:17:00.023Z,0.70
2023-02-20T05:19:28.060Z,0.70
2023-02-20T05:22:13.328Z,0.70
2023-02-20T05:24:44.827Z,0.80
2023-02-20T05:27:14.794Z,0.70
2023-02-20T05:29:46.184Z,0.70
2023-02-20T05:32:16.681Z,0.70
2023-02-20T05:34:44.968Z,0.70
2023-02-20T05:37:14.546Z,0.60
2023-02-20T05:39:43.752Z,0.60
2023-02-20T05:42:11.733Z,0.70
2023-02-20T05:44:41.993Z,0.60
2023-02-20T05:47:10.187Z,0.70
2023-02-20T05:49:39.519Z,0.60
2023-02-20T05:52:11.506Z,0.70
2023-02-20T05:54:41.147Z,0.60
2023-02-20T05:57:09.975Z,0.60
2023-02-20T05:59:37.937Z,0.60
2023-02-20T06:02:05.922Z,0.60
2023-02-20T06:04:34.063Z,0.70
2023-02-20T06:07:03.423Z,0.70
2023-02-20T06:09:31.386Z,0.70
2023-02-20T06:11:59.344Z,0.80
2023-02-20T06:14:28.253Z,0.80
2023-02-20T06:16:58.062Z,0.80
2023-02-20T06:19:27.043Z,0.80
2023-02-20T06:21:58.693Z,0.80
2023-02-20T06:24:30.414Z,0.90
2023-02-20T06:26:58.727Z,0.90
2023-02-20T06:29:26.729Z,0.90
2023-02-20T06:31:54.897Z,0.90
2023-02-20T06:34:24.534Z,1.00
2023-02-20T06:36:52.541Z,1.00
2023-02-20T06:39:20.574Z,1.10
2023-02-20T06:41:49.891Z,1.10
2023-02-20T06:44:17.976Z,1.10
2023-02-20T06:46:45.976Z,1.10
2023-02-20T06:49:14.190Z,1.20
2023-02-20T06:51:43.824Z,1.20
2023-02-20T06:54:13.490Z,1.30
2023-02-20T06:56:44.526Z,1.30
2023-02-20T06:59:14.960Z,1.30
2023-02-20T07:01:44.072Z,1.40
2023-02-20T07:04:18.039Z,1.40
2023-02-20T07:06:47.036Z,1.40
2023-02-20T07:09:15.498Z,1.50
2023-02-20T07:11:46.361Z,1.50
2023-02-20T07:14:15.930Z,1.50
2023-02-20T07:16:43.891Z,1.50
2023-02-20T07:19:11.968Z,1.60
2023-02-20T07:21:42.373Z,1.60
2023-02-20T07:24:10.372Z,1.70
2023-02-20T07:26:39.489Z,1.70
2023-02-20T07:29:08.741Z,1.80
2023-02-20T07:31:39.107Z,1.90
2023-02-20T07:34:07.207Z,1.90
2023-02-20T07:36:35.467Z,2.20
2023-02-20T07:39:06.633Z,2.80
2023-02-20T07:41:36.180Z,3.00
2023-02-20T07:44:04.895Z,3.30
2023-02-20T07:46:34.117Z,4.00
2023-02-20T07:49:07.111Z,4.00
2023-02-20T07:51:35.148Z,3.90
2023-02-20T07:54:04.394Z,3.80
2023-02-20T07:56:32.615Z,3.80
2023-02-20T07:59:02.684Z,3.90
2023-02-20T08:01:30.887Z,3.90
2023-02-20T08:03:58.991Z,3.90
2023-02-20T08:06:28.905Z,3.90
2023-02-20T08:09:00.026Z,3.90
2023-02-20T08:11:28.251Z,3.90
2023-02-20T08:13:56.295Z,3.80
2023-02-20T08:16:24.814Z,3.80
2023-02-20T08:18:52.869Z,3.80
2023-02-20T08:21:22.007Z,3.80
2023-02-20T08:23:52.551Z,3.80
2023-02-20T08:26:21.782Z,3.80
2023-02-20T08:28:54.026Z,3.80
2023-02-20T08:31:32.246Z,3.80
2023-02-20T08:34:03.227Z,3.80
2023-02-20T08:36:31.342Z,3.80
2023-02-20T08:39:01.247Z,3.80
2023-02-20T08:41:29.260Z,3.80
2023-02-20T08:43:57.530Z,3.80
2023-02-20T08:46:25.495Z,3.80
2023-02-20T08:48:53.488Z,3.90
2023-02-20T08:51:22.545Z,4.00
2023-02-20T08:53:50.622Z,4.10
2023-02-20T08:56:21.020Z,4.20
2023-02-20T08:58:49.252Z,4.20
2023-02-20T09:01:17.328Z,4.20
2023-02-20T09:03:45.356Z,4.20
2023-02-20T09:06:13.860Z,4.30
2023-02-20T09:08:42.086Z,4.40
2023-02-20T09:11:11.086Z,4.50
2023-02-20T09:13:44.792Z,4.50
2023-02-20T09:16:13.384Z,4.50
2023-02-20T09:18:44.903Z,4.50
2023-02-20T09:21:13.970Z,4.50
2023-02-20T09:23:42.840Z,4.50
2023-02-20T09:26:11.104Z,4.50
2023-02-20T09:28:43.089Z,4.60
2023-02-20T09:31:12.426Z,4.60
2023-02-20T09:33:47.729Z,4.60
2023-02-20T09:36:18.873Z,4.60
2023-02-20T09:38:46.934Z,4.60
2023-02-20T09:41:25.800Z,4.60
2023-02-20T09:44:02.092Z,4.60
2023-02-20T09:46:32.037Z,4.60
2023-02-20T09:49:07.854Z,4.60
2023-02-20T09:51:38.849Z,4.70
2023-02-20T09:54:11.812Z,4.70
2023-02-20T09:56:42.771Z,4.80
2023-02-20T09:59:16.527Z,4.80
2023-02-20T10:01:54.509Z,4.80
2023-02-20T10:04:26.545Z,4.80
2023-02-20T10:06:58.881Z,4.90
2023-02-20T10:09:26.955Z,4.90
2023-02-20T10:12:06.450Z,5.00
2023-02-20T10:15:06.989Z,5.00
2023-02-20T10:17:43.726Z,5.10
2023-02-20T10:20:16.183Z,5.10
2023-02-20T10:22:53.136Z,5.10
2023-02-20T10:25:29.244Z,5.20
2023-02-20T10:28:04.479Z,5.20
2023-02-20T10:30:37.025Z,5.20
2023-02-20T10:33:19.761Z,5.20
2023-02-20T10:35:54.374Z,5.30
2023-02-20T10:38:29.063Z,5.30
2023-02-20T10:41:05.023Z,5.30
2023-02-20T10:43:39.093Z,5.40
2023-02-20T10:46:13.113Z,5.40
2023-02-20T10:48:45.235Z,5.40
2023-02-20T10:51:18.526Z,5.50
2023-02-20T10:53:50.562Z,5.50
2023-02-20T10:56:23.171Z,5.50
2023-02-20T10:59:02.196Z,5.60
2023-02-20T11:01:32.168Z,5.60
2023-02-20T11:04:07.388Z,5.70
2023-02-20T11:06:40.960Z,5.70
2023-02-20T11:09:10.763Z,5.70
2023-02-20T11:11:42.428Z,5.80
2023-02-20T11:14:16.086Z,5.90
2023-02-20T11:16:50.874Z,5.90
2023-02-20T11:19:25.890Z,6.00
2023-02-20T11:21:54.276Z,6.00
2023-02-20T11:24:34.152Z,6.00
2023-02-20T11:27:10.324Z,6.10
2023-02-20T11:29:49.436Z,6.10
2023-02-20T11:32:37.004Z,6.10
2023-02-20T11:35:16.123Z,6.20
2023-02-20T11:37:54.545Z,6.20
2023-02-20T11:40:28.250Z,6.30
2023-02-20T11:42:56.484Z,6.40
2023-02-20T11:45:30.363Z,6.50
2023-02-20T11:48:17.025Z,6.50
2023-02-20T11:50:48.754Z,6.50
2023-02-20T11:53:22.653Z,6.60
2023-02-20T11:56:00.040Z,6.70
2023-02-20T11:58:29.486Z,6.80
2023-02-20T12:00:57.743Z,6.80
2023-02-20T12:03:28.455Z,6.80
2023-02-20T12:05:58.969Z,6.80
2023-02-20T12:08:48.785Z,6.90
2023-02-20T12:11:19.108Z,6.90
2023-02-20T12:13:49.313Z,6.90
2023-02-20T12:16:36.210Z,7.00
2023-02-20T12:19:12.582Z,7.10
2023-02-20T12:22:05.714Z,7.20
2023-02-20T12:24:46.960Z,7.20
2023-02-20T12:27:47.149Z,7.30
2023-02-20T12:30:28.575Z,7.30
2023-02-20T12:33:10.721Z,7.30
2023-02-20T12:35:52.230Z,7.20
2023-02-20T12:38:41.931Z,7.20
2023-02-20T12:41:29.111Z,7.20
2023-02-20T12:44:13.596Z,7.30
2023-02-20T12:46:51.890Z,7.30
2023-02-20T12:49:44.375Z,7.30
2023-02-20T12:52:31.519Z,7.30
2023-02-20T12:55:12.967Z,7.30
2023-02-20T12:57:45.766Z,7.30
2023-02-20T13:00:27.082Z,7.40
2023-02-20T13:03:00.881Z,7.40
2023-02-20T13:05:29.903Z,7.50
2023-02-20T13:08:03.847Z,7.50
2023-02-20T13:10:48.252Z,7.50
2023-02-20T13:13:17.043Z,7.60
2023-02-20T13:15:54.327Z,7.60
2023-02-20T13:18:29.253Z,7.60
2023-02-20T13:21:01.945Z,7.60
2023-02-20T13:23:32.968Z,7.60
2023-02-20T13:26:04.636Z,7.60
2023-02-20T13:28:43.001Z,7.70
2023-02-20T13:31:14.694Z,7.70
2023-02-20T13:33:46.415Z,7.70
2023-02-20T13:36:39.920Z,7.70
2023-02-20T13:39:27.658Z,7.80
2023-02-20T13:42:04.357Z,7.80
2023-02-20T13:44:42.723Z,7.80
2023-02-20T13:47:39.829Z,7.80
2023-02-20T13:50:42.982Z,7.90
2023-02-20T13:53:11.057Z,7.90
2023-02-20T13:55:39.245Z,7.90
2023-02-20T13:58:13.559Z,7.90
2023-02-20T14:00:48.986Z,7.90
2023-02-20T14:03:26.223Z,8.00
2023-02-20T14:06:08.485Z,8.00
2023-02-20T14:08:37.171Z,8.00
2023-02-20T14:11:07.296Z,8.00
2023-02-20T14:13:41.324Z,8.00
2023-02-20T14:16:28.802Z,8.00
2023-02-20T14:19:02.089Z,8.00
2023-02-20T14:21:31.141Z,8.00
2023-02-20T14:24:17.632Z,8.00
2023-02-20T14:26:46.124Z,8.00
2023-02-20T14:29:24.876Z,8.00
2023-02-20T14:31:54.654Z,8.00
2023-02-20T14:34:28.586Z,8.00
2023-02-20T14:37:05.464Z,8.00
2023-02-20T14:39:47.529Z,8.00
2023-02-20T14:42:18.175Z,8.00
2023-02-20T14:44:49.738Z,8.00
2023-02-20T14:47:18.895Z,8.00
2023-02-20T14:49:47.200Z,8.00
2023-02-20T14:52:18.923Z,8.00
2023-02-20T14:54:58.897Z,8.00
2023-02-20T14:57:27.217Z,8.00
2023-02-20T15:00:23.732Z,8.00
2023-02-20T15:02:55.680Z,8.00
2023-02-20T15:05:30.451Z,8.00
2023-02-20T15:08:11.893Z,8.00
2023-02-20T15:10:42.285Z,8.00
2023-02-20T15:13:12.762Z,8.00
2023-02-20T15:15:44.960Z,8.00
2023-02-20T15:18:17.405Z,7.90
2023-02-20T15:20:48.544Z,7.90
2023-02-20T15:23:29.499Z,7.90
2023-02-20T15:25:57.738Z,8.00
2023-02-20T15:28:28.806Z,8.00
2023-02-20T15:31:23.565Z,8.00
2023-02-20T15:33:53.898Z,8.00
2023-02-20T15:36:25.594Z,8.00
2023-02-20T15:38:55.543Z,8.00
2023-02-20T15:41:24.516Z,8.00
2023-02-20T15:43:52.515Z,8.00
2023-02-20T15:46:22.116Z,8.00
2023-02-20T15:48:50.158Z,8.00
2023-02-20T15:51:22.074Z,8.10
2023-02-20T15:53:52.069Z,8.10
2023-02-20T15:56:23.539Z,8.10
2023-02-20T15:58:52.591Z,8.20
2023-02-20T16:01:25.095Z,8.20
2023-02-20T16:03:53.696Z,8.20
2023-02-20T16:06:22.704Z,8.20
2023-02-20T16:08:51.407Z,8.20
2023-02-20T16:11:22.038Z,8.20
2023-02-20T16:13:56.050Z,8.20
2023-02-20T16:16:32.066Z,8.20
2023-02-20T16:19:00.250Z,8.30
2023-02-20T16:21:31.195Z,8.30
2023-02-20T16:23:59.198Z,8.30
2023-02-20T16:26:29.892Z,8.40
2023-02-20T16:29:04.836Z,8.40
2023-02-20T16:32:06.391Z,8.40
2023-02-20T16:34:37.896Z,8.40
2023-02-20T16:37:06.055Z,8.40
2023-02-20T16:39:34.073Z,8.50
2023-02-20T16:42:03.481Z,8.40
2023-02-20T16:44:37.219Z,8.50
2023-02-20T16:47:05.794Z,8.50
2023-02-20T16:49:37.587Z,8.50
2023-02-20T16:52:11.653Z,8.50
2023-02-20T16:54:39.622Z,8.50
2023-02-20T16:57:07.570Z,8.50
2023-02-20T16:59:35.524Z,8.60
2023-02-20T17:02:03.553Z,8.60
2023-02-20T17:04:31.584Z,8.60
2023-02-20T17:07:01.203Z,8.60
2023-02-20T17:09:42.011Z,8.60
2023-02-20T17:12:11.308Z,8.60
2023-02-20T17:14:39.379Z,8.60
2023-02-20T17:17:08.195Z,8.60
2023-02-20T17:19:38.575Z,8.70
2023-02-20T17:22:08.825Z,8.70
2023-02-20T17:24:37.059Z,8.70
2023-02-20T17:27:05.184Z,8.70
2023-02-20T17:29:33.161Z,8.70
2023-02-20T17:32:01.231Z,8.70
2023-02-20T17:34:29.298Z,8.70
2023-02-20T17:36:57.287Z,8.70
2023-02-20T17:39:26.749Z,8.70
2023-02-20T17:41:56.622Z,8.70
2023-02-20T17:44:26.397Z,8.80
2023-02-20T17:46:55.929Z,8.70
2023-02-20T17:49:26.737Z,8.80
2023-02-20T17:51:58.517Z,8.70
2023-02-20T17:54:28.517Z,8.70
2023-02-20T17:56:56.718Z,8.70
2023-02-20T17:59:24.962Z,8.80
2023-02-20T18:01:53.086Z,8.80
2023-02-20T18:04:24.171Z,8.80
2023-02-20T18:06:54.187Z,8.80
2023-02-20T18:09:22.232Z,8.80
2023-02-20T18:11:51.875Z,8.80
2023-02-20T18:14:20.584Z,8.80
2023-02-20T18:16:48.631Z,8.80
2023-02-20T18:19:18.277Z,8.80
2023-02-20T18:21:49.241Z,8.80
2023-02-20T18:24:21.722Z,8.80
2023-02-20T18:26:52.719Z,8.80
2023-02-20T18:29:25.049Z,8.80
2023-02-20T18:31:54.488Z,8.80
2023-02-20T18:34:25.831Z,8.80
2023-02-20T18:36:55.271Z,8.80
2023-02-20T18:39:24.921Z,8.90
2023-02-20T18:41:56.119Z,8.90
2023-02-20T18:44:25.880Z,8.90
2023-02-20T18:46:53.897Z,8.90
2023-02-20T18:49:21.904Z,8.90
2023-02-20T18:51:50.119Z,8.90
2023-02-20T18:54:23.479Z,8.90
2023-02-20T18:56:52.260Z,8.90
2023-02-20T18:59:22.963Z,8.90
2023-02-20T19:01:51.056Z,9.00
2023-02-20T19:04:19.133Z,8.90
2023-02-20T19:06:48.525Z,9.00
2023-02-20T19:09:18.647Z,9.00
2023-02-20T19:11:50.708Z,9.00
2023-02-20T19:14:19.890Z,9.00
2023-02-20T19:16:53.388Z,9.00
2023-02-20T19:19:24.652Z,9.00
2023-02-20T19:21:55.939Z,9.00
2023-02-20T19:24:24.415Z,9.10
2023-02-20T19:26:52.888Z,9.10
2023-02-20T19:29:21.265Z,9.00
2023-02-20T19:31:49.469Z,9.10
2023-02-20T19:34:18.977Z,9.10
2023-02-20T19:36:47.013Z,9.10
2023-02-20T19:39:16.075Z,9.10
2023-02-20T19:41:51.598Z,9.10
2023-02-20T19:44:22.300Z,9.10
2023-02-20T19:46:52.209Z,9.10
2023-02-20T19:49:22.713Z,9.10
2023-02-20T19:51:52.262Z,9.10
2023-02-20T19:54:26.054Z,9.10
2023-02-20T19:56:55.879Z,9.10
2023-02-20T19:59:24.253Z,9.10
2023-02-20T20:01:53.781Z,9.10
2023-02-20T20:04:25.511Z,9.10
2023-02-20T20:06:54.401Z,9.10
2023-02-20T20:09:35.689Z,9.10
2023-02-20T20:12:29.983Z,9.10
2023-02-20T20:15:06.005Z,9.00
2023-02-20T20:17:34.005Z,9.00
2023-02-20T20:20:03.496Z,9.00
2023-02-20T20:22:31.960Z,9.00
2023-02-20T20:25:00.380Z,9.10
2023-02-20T20:27:28.531Z,9.00
2023-02-20T20:29:57.089Z,9.00
2023-02-20T20:32:25.430Z,9.00
2023-02-20T20:34:57.011Z,9.10
2023-02-20T20:37:28.605Z,9.00
2023-02-20T20:39:58.947Z,9.00
2023-02-20T20:42:28.742Z,9.00
2023-02-20T20:45:10.852Z,9.00
2023-02-20T20:47:42.133Z,9.00
2023-02-20T20:50:10.867Z,9.00
2023-02-20T20:52:40.353Z,9.00
2023-02-20T20:55:09.393Z,9.00
2023-02-20T20:57:38.004Z,9.00
2023-02-20T21:00:07.910Z,9.00
2023-02-20T21:02:36.007Z,9.00
2023-02-20T21:05:10.278Z,9.00
2023-02-20T21:07:40.511Z,9.00
2023-02-20T21:10:09.470Z,9.00
2023-02-20T21:12:37.527Z,9.00
2023-02-20T21:15:06.381Z,9.00
2023-02-20T21:17:34.502Z,9.00
2023-02-20T21:20:07.901Z,9.00
2023-02-20T21:22:36.361Z,9.10
2023-02-20T21:25:06.340Z,9.10
2023-02-20T21:27:34.340Z,9.10
2023-02-20T21:30:02.977Z,9.10
2023-02-20T21:32:30.988Z,9.10
2023-02-20T21:34:59.011Z,9.10
2023-02-20T21:37:28.033Z,9.10
2023-02-20T21:39:56.063Z,9.10
2023-02-20T21:42:57.499Z,9.10
2023-02-20T21:45:26.845Z,9.10
2023-02-20T21:47:54.826Z,9.10
2023-02-20T21:50:25.087Z,9.10
2023-02-20T21:52:53.140Z,9.20
2023-02-20T21:55:21.237Z,9.20
2023-02-20T21:57:55.517Z,9.20
2023-02-20T22:00:22.879Z,9.20
2023-02-20T22:02:49.817Z,9.20
2023-02-20T22:05:16.687Z,9.20
2023-02-20T22:08:02.431Z,9.20
2023-02-20T22:10:48.018Z,9.20
2023-02-20T22:13:34.762Z,9.30
2023-02-20T22:16:22.400Z,9.30
2023-02-20T22:19:07.647Z,9.30
2023-02-20T22:21:53.368Z,9.30
2023-02-20T22:24:39.445Z,9.40
2023-02-20T22:27:26.914Z,9.30
2023-02-20T22:30:14.361Z,9.40
2023-02-20T22:33:00.296Z,9.30
2023-02-20T22:35:45.691Z,9.40
2023-02-20T22:38:31.349Z,9.40
2023-02-20T22:41:17.159Z,9.40
2023-02-20T22:44:02.850Z,9.40
2023-02-20T22:46:49.764Z,9.40
2023-02-20T22:49:35.140Z,9.40
2023-02-20T22:52:20.683Z,9.40
2023-02-20T22:55:06.627Z,9.40
2023-02-20T22:57:52.115Z,9.40
2023-02-20T23:00:38.428Z,9.40
2023-02-20T23:03:25.454Z,9.40
2023-02-20T23:06:18.062Z,9.40
2023-02-20T23:09:04.320Z,9.40
2023-02-20T23:11:51.774Z,9.40
2023-02-20T23:14:37.334Z,9.40
2023-02-20T23:17:34.986Z,9.40
2023-02-20T23:20:24.986Z,9.40
2023-02-20T23:23:10.784Z,9.40
2023-02-20T23:25:56.314Z,9.40
2023-02-20T23:28:41.791Z,9.40
2023-02-20T23:31:27.184Z,9.40
2023-02-20T23:34:12.663Z,9.40
2023-02-20T23:37:04.958Z,9.40
2023-02-20T23:39:50.500Z,9.40
2023-02-20T23:42:36.716Z,9.40
2023-02-20T23:45:23.604Z,9.40
2023-02-20T23:48:08.956Z,9.40
2023-02-20T23:50:54.452Z,9.40
2023-02-20T23:53:43.879Z,9.40
2023-02-20T23:56:29.394Z,9.40
2023-02-20T23:59:14.924Z,9.40
